Time;durP1;ratioP1;P1;durP2;ratioP2;P2;SDS_P1;SDS_P2;PMS_P1;PMS_P2;Temp;Humidity;BMP_temperature;BMP_pressure;BME280_temperature;BME280_humidity;BME280_pressure;Samples;Min_cycle;Max_cycle;Signal;HPM_P1;HPM_P2
2023/05/25 00:01:23;;;;;;;11.32;4.28;;;10.40;74.60;;;;;;5058750;28;20032;-71
2023/05/25 00:03:51;;;;;;;8.68;3.70;;;10.40;74.50;;;;;;5064097;28;20105;-70
2023/05/25 00:06:18;;;;;;;8.93;3.55;;;10.40;74.40;;;;;;5069813;28;20040;-62
2023/05/25 00:08:46;;;;;;;8.27;3.95;;;10.40;74.60;;;;;;5063781;28;20052;-62
2023/05/25 00:11:18;;;;;;;11.27;4.03;;;10.30;74.90;;;;;;5060145;28;20079;-71
2023/05/25 00:13:45;;;;;;;9.68;3.47;;;10.20;74.90;;;;;;5055347;28;20136;-72
2023/05/25 00:16:12;;;;;;;7.70;3.22;;;10.20;75.00;;;;;;5062703;28;20045;-67
2023/05/25 00:18:38;;;;;;;6.93;3.00;;;10.20;74.90;;;;;;5062969;28;20056;-68
2023/05/25 00:21:06;;;;;;;7.50;3.28;;;10.20;74.70;;;;;;5053383;28;20040;-70
2023/05/25 00:23:33;;;;;;;10.60;4.03;;;10.20;74.80;;;;;;5059445;28;20066;-71
2023/05/25 00:26:00;;;;;;;8.50;3.17;;;10.10;74.90;;;;;;5061816;28;20525;-69
2023/05/25 00:28:28;;;;;;;7.88;3.30;;;10.10;75.10;;;;;;5059460;28;20523;-69
2023/05/25 00:30:55;;;;;;;8.60;2.60;;;10.00;75.20;;;;;;5048147;28;20041;-62
2023/05/25 00:33:22;;;;;;;7.57;3.00;;;10.00;75.30;;;;;;5046245;28;20041;-62
2023/05/25 00:35:49;;;;;;;9.18;3.20;;;9.90;75.50;;;;;;5068446;28;20048;-69
2023/05/25 00:38:17;;;;;;;7.13;3.15;;;9.90;75.70;;;;;;5060784;28;20091;-69
2023/05/25 00:40:45;;;;;;;8.27;3.28;;;9.90;75.70;;;;;;5045635;28;20075;-68
2023/05/25 00:43:14;;;;;;;6.65;2.80;;;9.80;75.80;;;;;;5058255;28;20060;-69
2023/05/25 00:45:42;;;;;;;9.90;3.55;;;9.90;75.80;;;;;;5051997;28;20049;-69
2023/05/25 00:48:09;;;;;;;6.70;3.15;;;9.90;75.60;;;;;;5067763;28;20067;-68
2023/05/25 00:50:40;;;;;;;10.82;3.85;;;9.90;75.50;;;;;;5068638;28;20052;-76
2023/05/25 00:53:08;;;;;;;7.17;3.27;;;9.80;75.50;;;;;;5064600;28;20123;-76
2023/05/25 00:55:38;;;;;;;8.48;3.58;;;9.80;75.50;;;;;;5062681;28;20053;-62
2023/05/25 00:58:07;;;;;;;;;;;9.80;75.30;;;;;;5058774;28;20033;-60
2023/05/25 01:00:35;;;;;;;7.95;3.00;;;9.70;75.30;;;;;;5051080;28;19986;-69
2023/05/25 01:03:10;;;;;;;7.53;3.03;;;9.70;75.50;;;;;;5060578;28;20098;-71
2023/05/25 01:05:43;;;;;;;6.72;3.10;;;9.70;75.60;;;;;;5066508;28;20052;-77
2023/05/25 01:08:13;;;;;;;8.68;4.25;;;9.60;75.80;;;;;;5063945;28;20033;-75
2023/05/25 01:10:42;;;;;;;7.13;2.83;;;9.60;76.10;;;;;;5036422;28;20049;-67
2023/05/25 01:13:10;;;;;;;5.47;2.55;;;9.60;76.10;;;;;;5059555;28;20472;-67
2023/05/25 01:15:38;;;;;;;7.97;3.00;;;9.50;76.10;;;;;;5041246;28;20063;-76
2023/05/25 01:18:08;;;;;;;7.45;2.95;;;9.50;76.10;;;;;;5061313;28;20059;-76
2023/05/25 01:20:35;;;;;;;6.78;2.97;;;9.40;76.10;;;;;;5053581;28;20048;-70
2023/05/25 01:23:12;;;;;;;6.65;2.58;;;9.40;76.20;;;;;;5060719;28;20463;-69
2023/05/25 01:25:45;;;;;;;8.07;2.53;;;9.40;76.20;;;;;;5049057;28;20053;-77
2023/05/25 01:28:18;;;;;;;6.70;2.70;;;9.30;76.10;;;;;;5058394;28;20041;-75
2023/05/25 01:30:47;;;;;;;5.72;2.45;;;9.30;76.30;;;;;;5059695;28;20040;-66
2023/05/25 01:33:15;;;;;;;6.50;2.50;;;9.30;76.30;;;;;;5065125;28;20045;-67
2023/05/25 01:35:43;;;;;;;6.70;2.92;;;9.30;76.30;;;;;;5059841;28;20039;-70
2023/05/25 01:38:11;;;;;;;7.18;3.03;;;9.30;76.30;;;;;;5065368;28;20048;-69
2023/05/25 01:40:40;;;;;;;7.15;3.00;;;9.20;76.40;;;;;;5062277;28;20057;-71
2023/05/25 01:43:06;;;;;;;7.65;3.17;;;9.20;76.40;;;;;;5056230;28;20047;-72
2023/05/25 01:45:34;;;;;;;6.70;3.08;;;9.20;76.50;;;;;;5052238;28;20183;-67
2023/05/25 01:48:07;;;;;;;7.60;3.05;;;9.10;76.60;;;;;;5062718;28;20054;-68
2023/05/25 01:50:40;;;;;;;7.55;3.00;;;9.10;76.60;;;;;;5061711;28;20048;-62
2023/05/25 01:53:16;;;;;;;7.90;3.17;;;9.10;76.70;;;;;;5062510;28;20412;-62
2023/05/25 01:55:47;;;;;;;7.20;3.25;;;9.10;76.70;;;;;;5054961;28;20142;-62
2023/05/25 01:58:15;;;;;;;9.07;3.50;;;9.00;76.80;;;;;;5058398;28;20396;-62
2023/05/25 02:00:43;;;;;;;6.55;3.17;;;9.00;77.00;;;;;;5032142;28;20041;-68
2023/05/25 02:03:11;;;;;;;8.93;3.58;;;9.00;76.90;;;;;;5040107;28;20885;-69
2023/05/25 02:05:41;;;;;;;7.53;3.42;;;9.00;77.10;;;;;;5068104;28;20048;-62
2023/05/25 02:08:08;;;;;;;8.48;3.08;;;9.00;77.20;;;;;;5066605;28;20080;-61
2023/05/25 02:10:36;;;;;;;10.18;3.58;;;9.00;77.10;;;;;;5035849;28;20428;-71
2023/05/25 02:13:03;;;;;;;8.07;3.20;;;9.00;77.00;;;;;;5055044;28;20045;-70
2023/05/25 02:15:33;;;;;;;9.00;3.58;;;8.90;77.00;;;;;;5060093;28;20060;-69
2023/05/25 02:18:00;;;;;;;6.53;3.10;;;8.90;77.00;;;;;;5042132;28;20535;-71
2023/05/25 02:20:30;;;;;;;6.97;3.05;;;8.90;77.10;;;;;;5049911;28;20048;-67
2023/05/25 02:22:57;;;;;;;9.10;3.38;;;8.90;77.00;;;;;;5063923;28;20421;-66
2023/05/25 02:25:23;;;;;;;7.43;3.50;;;8.90;76.70;;;;;;5048764;28;20063;-66
2023/05/25 02:27:52;;;;;;;9.05;3.95;;;9.00;76.50;;;;;;5055444;28;20045;-68
2023/05/25 02:30:19;;;;;;;7.93;3.25;;;9.00;76.60;;;;;;5043821;28;20064;-67
2023/05/25 02:32:46;;;;;;;7.18;3.33;;;9.00;76.60;;;;;;5041729;28;20514;-66
2023/05/25 02:35:13;;;;;;;8.70;3.70;;;9.00;76.70;;;;;;5044561;28;20049;-65
2023/05/25 02:37:40;;;;;;;6.53;2.95;;;8.90;76.90;;;;;;5057497;28;20078;-66
2023/05/25 02:40:09;;;;;;;6.63;3.05;;;8.90;77.00;;;;;;5063717;28;20064;-67
2023/05/25 02:42:36;;;;;;;6.95;2.80;;;8.80;77.00;;;;;;5053205;28;20045;-67
2023/05/25 02:45:09;;;;;;;10.20;3.30;;;8.80;76.90;;;;;;5037973;28;20071;-66
2023/05/25 02:47:36;;;;;;;8.88;3.28;;;8.70;76.90;;;;;;5046979;28;20049;-70
2023/05/25 02:50:03;;;;;;;9.07;3.08;;;8.80;76.90;;;;;;5041629;28;20053;-69
2023/05/25 02:52:32;;;;;;;11.02;2.80;;;8.70;77.00;;;;;;5040688;28;20056;-70
2023/05/25 02:54:59;;;;;;;9.13;3.20;;;8.70;77.20;;;;;;5058131;28;20041;-69
2023/05/25 02:57:33;;;;;;;8.25;2.90;;;8.70;77.30;;;;;;5041611;28;20040;-71
2023/05/25 03:00:00;;;;;;;6.60;2.75;;;8.70;77.40;;;;;;5031763;28;20132;-69
2023/05/25 03:02:30;;;;;;;9.82;2.85;;;8.70;77.40;;;;;;5042659;28;20158;-78
2023/05/25 03:04:57;;;;;;;5.95;2.45;;;8.60;77.60;;;;;;5044046;28;20057;-76
2023/05/25 03:07:25;;;;;;;8.80;3.00;;;8.50;77.60;;;;;;5046147;28;20522;-76
2023/05/25 03:09:54;;;;;;;6.47;2.60;;;8.50;77.60;;;;;;5057519;28;20052;-76
2023/05/25 03:12:22;;;;;;;8.32;3.03;;;8.50;77.60;;;;;;5048413;28;20044;-69
2023/05/25 03:14:50;;;;;;;8.25;2.65;;;8.50;77.50;;;;;;5047197;28;20076;-68
2023/05/25 03:17:17;;;;;;;7.25;2.90;;;8.50;77.40;;;;;;5046623;28;20060;-75
2023/05/25 03:19:46;;;;;;;7.25;2.75;;;8.50;77.50;;;;;;5046258;28;20146;-77
2023/05/25 03:22:13;;;;;;;7.85;3.38;;;8.50;77.70;;;;;;5039289;28;20046;-63
2023/05/25 03:24:40;;;;;;;6.50;2.80;;;8.50;77.70;;;;;;5047986;28;20105;-61
2023/05/25 03:27:08;;;;;;;7.72;3.00;;;8.60;77.70;;;;;;5040427;28;20052;-76
2023/05/25 03:29:36;;;;;;;8.90;3.75;;;8.50;77.80;;;;;;5037254;28;20109;-77
2023/05/25 03:32:03;;;;;;;9.45;3.65;;;8.40;77.90;;;;;;5040814;28;20131;-77
2023/05/25 03:34:34;;;;;;;7.22;3.35;;;8.40;78.10;;;;;;5046757;28;20158;-76
2023/05/25 03:37:02;;;;;;;8.88;3.38;;;8.40;78.20;;;;;;5043923;28;20070;-76
2023/05/25 03:39:29;;;;;;;7.93;3.38;;;8.40;78.20;;;;;;5045332;28;20044;-77
2023/05/25 03:41:57;;;;;;;9.73;3.53;;;8.40;78.20;;;;;;5043750;28;20072;-70
2023/05/25 03:44:24;;;;;;;10.95;4.03;;;8.40;78.10;;;;;;5037906;28;20041;-71
2023/05/25 03:46:51;;;;;;;8.63;3.50;;;8.40;78.20;;;;;;5044366;28;20063;-62
2023/05/25 03:49:18;;;;;;;7.40;3.80;;;8.40;78.20;;;;;;5063613;28;20051;-62
2023/05/25 03:51:45;;;;;;;7.22;3.22;;;8.40;78.10;;;;;;5057991;28;20036;-62
2023/05/25 03:54:14;;;;;;;8.55;3.58;;;8.40;78.30;;;;;;5046029;28;20136;-62
2023/05/25 03:56:41;;;;;;;7.13;3.28;;;8.40;78.40;;;;;;5063440;28;20041;-62
2023/05/25 03:59:09;;;;;;;9.68;3.70;;;8.40;78.40;;;;;;5058673;28;20048;-62
2023/05/25 04:01:38;;;;;;;9.53;4.03;;;8.50;78.30;;;;;;5049087;28;20408;-62
2023/05/25 04:04:06;;;;;;;8.88;3.10;;;8.60;78.10;;;;;;5055892;28;20478;-63
2023/05/25 04:06:35;;;;;;;8.75;3.47;;;8.60;78.20;;;;;;5064680;28;20112;-67
2023/05/25 04:09:03;;;;;;;9.38;3.30;;;8.60;78.20;;;;;;5060393;28;20047;-66
2023/05/25 04:11:31;;;;;;;7.72;3.55;;;8.60;78.30;;;;;;5041758;28;20132;-71
2023/05/25 04:13:59;;;;;;;8.35;3.40;;;8.60;78.10;;;;;;5060355;28;20036;-71
2023/05/25 04:16:28;;;;;;;7.88;3.13;;;8.70;77.80;;;;;;5046724;28;20155;-70
2023/05/25 04:18:56;;;;;;;8.30;4.07;;;8.70;77.90;;;;;;5061003;28;20071;-70
2023/05/25 04:21:23;;;;;;;9.25;3.70;;;8.70;77.90;;;;;;5045562;28;20044;-70
2023/05/25 04:23:50;;;;;;;8.57;3.67;;;8.70;78.00;;;;;;5045534;28;20041;-70
2023/05/25 04:26:18;;;;;;;7.70;3.55;;;8.60;78.10;;;;;;5044366;28;20048;-70
2023/05/25 04:28:48;;;;;;;8.40;3.47;;;8.60;78.40;;;;;;5056431;28;20055;-69
2023/05/25 04:31:28;;;;;;;10.07;3.88;;;8.70;78.20;;;;;;5040970;28;20048;-62
2023/05/25 04:34:22;;;;;;;7.63;2.85;;;8.70;78.20;;;;;;5055005;28;20438;-62
2023/05/25 04:37:14;;;;;;;7.57;2.97;;;8.70;78.40;;;;;;5045661;28;20055;-62
2023/05/25 04:39:41;;;;;;;9.02;3.17;;;8.80;78.70;;;;;;5062288;28;20037;-63
2023/05/25 04:42:08;;;;;;;8.98;3.28;;;8.80;79.00;;;;;;5046649;28;20053;-70
2023/05/25 04:44:36;;;;;;;9.48;3.75;;;8.80;79.20;;;;;;5041183;28;20049;-70
2023/05/25 04:47:06;;;;;;;6.35;3.03;;;8.80;79.50;;;;;;5045268;28;20068;-65
2023/05/25 04:49:34;;;;;;;8.20;3.58;;;8.90;79.30;;;;;;5048561;28;20488;-67
2023/05/25 04:52:01;;;;;;;7.97;3.55;;;8.90;79.10;;;;;;5063494;28;20059;-70
2023/05/25 04:54:30;;;;;;;6.18;3.45;;;8.90;79.10;;;;;;5048322;28;20048;-70
2023/05/25 04:57:00;;;;;;;9.30;3.80;;;9.00;79.00;;;;;;5057689;28;20080;-69
2023/05/25 04:59:27;;;;;;;9.63;3.45;;;9.10;78.90;;;;;;5058272;28;20495;-70
2023/05/25 05:01:55;;;;;;;8.27;3.33;;;9.10;79.20;;;;;;5061202;28;20056;-65
2023/05/25 05:04:22;;;;;;;7.50;3.47;;;9.10;79.30;;;;;;5065639;28;20036;-66
2023/05/25 05:06:50;;;;;;;6.55;3.17;;;9.10;79.40;;;;;;5045045;28;20049;-70
2023/05/25 05:09:20;;;;;;;8.60;3.47;;;9.20;79.30;;;;;;5046432;28;20044;-71
2023/05/25 05:11:48;;;;;;;8.48;3.47;;;9.20;79.20;;;;;;5041568;28;20045;-67
2023/05/25 05:14:15;;;;;;;8.90;3.00;;;9.20;79.20;;;;;;5056814;28;20144;-66
2023/05/25 05:16:44;;;;;;;8.73;3.65;;;9.20;79.20;;;;;;5045565;28;20512;-62
2023/05/25 05:19:12;;;;;;;6.88;3.20;;;9.30;79.00;;;;;;5042518;28;20090;-62
2023/05/25 05:21:40;;;;;;;5.53;2.88;;;9.30;78.90;;;;;;5058718;28;20051;-71
2023/05/25 05:24:08;;;;;;;8.90;3.50;;;9.40;78.80;;;;;;5043615;28;20071;-71
2023/05/25 05:26:35;;;;;;;7.03;2.97;;;9.40;79.10;;;;;;5064391;28;20036;-70
2023/05/25 05:29:03;;;;;;;7.20;3.00;;;9.40;78.90;;;;;;5043367;28;20181;-70
2023/05/25 05:31:30;;;;;;;8.93;2.92;;;9.50;79.20;;;;;;5043605;28;20096;-62
2023/05/25 05:33:57;;;;;;;6.00;3.05;;;9.60;79.10;;;;;;5043479;28;20079;-62
2023/05/25 05:36:29;;;;;;;6.82;2.95;;;9.60;79.30;;;;;;5046474;28;20072;-68
2023/05/25 05:38:56;;;;;;;6.70;2.92;;;9.70;79.30;;;;;;5057246;28;20052;-69
2023/05/25 05:41:23;;;;;;;11.25;3.47;;;9.70;79.40;;;;;;5067986;28;20037;-69
2023/05/25 05:43:51;;;;;;;7.65;3.42;;;9.70;79.80;;;;;;5044784;28;20079;-69
2023/05/25 05:46:18;;;;;;;8.40;3.22;;;9.80;79.90;;;;;;5059503;28;20116;-62
2023/05/25 05:48:44;;;;;;;9.68;3.60;;;9.70;79.70;;;;;;5047302;28;20048;-63
2023/05/25 05:51:13;;;;;;;6.93;3.13;;;9.80;80.00;;;;;;5059519;28;20048;-62
2023/05/25 05:53:45;;;;;;;8.85;3.55;;;9.90;80.20;;;;;;5046763;28;20057;-61
2023/05/25 05:56:18;;;;;;;10.20;3.80;;;9.90;80.50;;;;;;5042221;28;20488;-65
2023/05/25 05:58:48;;;;;;;9.70;3.97;;;9.90;79.70;;;;;;5045134;28;20503;-67
2023/05/25 06:01:15;;;;;;;8.93;3.72;;;9.90;79.90;;;;;;5058966;28;20076;-70
2023/05/25 06:03:42;;;;;;;7.72;3.85;;;9.90;80.50;;;;;;5067585;28;20044;-69
2023/05/25 06:06:09;;;;;;;10.90;4.68;;;9.90;80.10;;;;;;5051285;28;20045;-64
2023/05/25 06:08:39;;;;;;;8.05;4.18;;;10.00;80.60;;;;;;5046939;28;20055;-64
2023/05/25 06:11:08;;;;;;;9.68;4.45;;;10.10;80.00;;;;;;5047696;28;20056;-69
2023/05/25 06:13:36;;;;;;;12.43;4.70;;;10.20;80.70;;;;;;5051091;28;20157;-71
2023/05/25 06:16:03;;;;;;;7.60;3.80;;;10.20;80.10;;;;;;5049859;28;20098;-69
2023/05/25 06:18:30;;;;;;;11.25;4.65;;;10.30;80.60;;;;;;5037426;28;20117;-68
2023/05/25 06:20:57;;;;;;;7.80;3.92;;;10.40;80.00;;;;;;5047198;28;20059;-63
2023/05/25 06:23:25;;;;;;;8.20;4.28;;;10.40;80.30;;;;;;5047126;28;20050;-62
2023/05/25 06:25:53;;;;;;;8.48;3.63;;;10.60;79.70;;;;;;5056441;28;20040;-69
2023/05/25 06:28:22;;;;;;;9.23;3.80;;;10.60;79.60;;;;;;5065624;28;20048;-69
2023/05/25 06:30:50;;;;;;;8.07;3.70;;;10.70;79.50;;;;;;5045003;28;20076;-70
2023/05/25 06:33:17;;;;;;;8.63;3.88;;;10.90;79.50;;;;;;5046863;28;20044;-71
2023/05/25 06:35:44;;;;;;;8.48;3.72;;;11.10;78.90;;;;;;5038490;28;20052;-76
2023/05/25 06:38:11;;;;;;;8.95;3.65;;;11.20;79.10;;;;;;5044640;28;20148;-76
2023/05/25 06:40:38;;;;;;;7.90;4.05;;;11.40;78.30;;;;;;5047181;28;20503;-68
2023/05/25 06:43:05;;;;;;;10.10;4.60;;;11.60;77.90;;;;;;5058943;28;20109;-67
2023/05/25 06:45:43;;;;;;;8.18;3.90;;;11.70;77.20;;;;;;5048014;28;20423;-67
2023/05/25 06:48:10;;;;;;;9.15;4.43;;;11.90;76.80;;;;;;5066042;28;20052;-67
2023/05/25 06:50:41;;;;;;;8.57;4.30;;;12.20;76.50;;;;;;5057771;28;20057;-68
2023/05/25 06:53:09;;;;;;;;;;;12.30;76.40;;;;;;5064780;28;20066;-67
2023/05/25 06:55:36;;;;;;;13.07;5.32;;;12.50;76.20;;;;;;5062195;28;19924;-79
2023/05/25 06:58:03;;;;;;;11.13;4.97;;;12.70;75.90;;;;;;5064593;28;20185;-78
2023/05/25 07:00:30;;;;;;;8.52;4.57;;;12.90;75.50;;;;;;5062221;28;20872;-67
2023/05/25 07:03:00;;;;;;;9.43;4.60;;;13.00;75.40;;;;;;5065295;28;20081;-66
2023/05/25 07:05:27;;;;;;;9.63;4.53;;;13.20;75.30;;;;;;5061718;28;20057;-69
2023/05/25 07:07:54;;;;;;;8.38;4.20;;;13.30;75.00;;;;;;5064360;28;20051;-68
2023/05/25 07:10:21;;;;;;;8.85;4.20;;;13.60;74.50;;;;;;5063842;28;20076;-68
2023/05/25 07:12:48;;;;;;;9.68;4.03;;;13.70;73.90;;;;;;5064635;28;20044;-69
2023/05/25 07:15:15;;;;;;;9.25;3.97;;;13.90;73.70;;;;;;5063178;28;20504;-68
2023/05/25 07:17:42;;;;;;;8.50;4.03;;;14.00;73.40;;;;;;5059207;28;20060;-69
2023/05/25 07:20:11;;;;;;;7.35;3.92;;;14.20;73.20;;;;;;5061508;28;20138;-68
2023/05/25 07:22:38;;;;;;;10.73;3.72;;;14.30;72.70;;;;;;5066389;28;20044;-78
2023/05/25 07:25:06;;;;;;;7.55;3.90;;;14.50;72.10;;;;;;5062308;28;20048;-75
2023/05/25 07:27:34;;;;;;;10.45;3.85;;;14.60;71.90;;;;;;5063923;28;20102;-71
2023/05/25 07:30:01;;;;;;;9.65;3.65;;;14.70;71.70;;;;;;5064888;28;20500;-69
2023/05/25 07:32:28;;;;;;;9.38;3.40;;;14.90;70.70;;;;;;5062990;28;20920;-60
2023/05/25 07:34:55;;;;;;;6.47;2.95;;;15.10;70.10;;;;;;5059821;28;20041;-63
2023/05/25 07:37:23;;;;;;;9.30;3.65;;;15.30;69.40;;;;;;5064876;28;20055;-77
2023/05/25 07:39:50;;;;;;;8.07;2.97;;;15.50;68.90;;;;;;5063588;28;20053;-77
2023/05/25 07:42:19;;;;;;;8.40;3.63;;;15.50;68.80;;;;;;5061934;28;20490;-63
2023/05/25 07:44:47;;;;;;;6.50;2.53;;;15.60;67.90;;;;;;5059456;28;20136;-63
2023/05/25 07:47:14;;;;;;;6.55;3.15;;;15.80;67.70;;;;;;5065315;28;20044;-68
2023/05/25 07:49:41;;;;;;;5.95;3.15;;;15.90;67.10;;;;;;5062074;28;20064;-68
2023/05/25 07:52:08;;;;;;;9.57;3.40;;;16.00;66.30;;;;;;5064488;28;20036;-64
2023/05/25 07:54:38;;;;;;;6.60;3.00;;;16.10;66.00;;;;;;5055402;28;20040;-63
2023/05/25 07:57:06;;;;;;;7.97;3.38;;;16.20;65.30;;;;;;5060143;28;20047;-72
2023/05/25 07:59:33;;;;;;;7.47;3.08;;;16.30;65.30;;;;;;5064048;28;20103;-72
2023/05/25 08:02:00;;;;;;;7.82;3.25;;;16.50;65.90;;;;;;5060201;28;20072;-69
2023/05/25 08:04:27;;;;;;;8.02;3.00;;;16.50;65.50;;;;;;5064387;28;20117;-70
2023/05/25 08:06:54;;;;;;;5.05;2.80;;;16.60;65.10;;;;;;5062097;28;20044;-77
2023/05/25 08:09:21;;;;;;;6.30;3.25;;;16.70;64.50;;;;;;5063038;28;20052;-77
2023/05/25 08:11:49;;;;;;;8.32;2.92;;;16.80;64.00;;;;;;5060942;28;20045;-68
2023/05/25 08:14:16;;;;;;;5.97;2.97;;;16.90;64.00;;;;;;5065676;28;20136;-68
2023/05/25 08:16:43;;;;;;;7.35;2.90;;;17.10;63.60;;;;;;5063400;28;20045;-72
2023/05/25 08:19:10;;;;;;;6.72;2.65;;;17.20;63.20;;;;;;5052026;28;20033;-73
2023/05/25 08:21:38;;;;;;;6.00;2.92;;;17.40;63.50;;;;;;5056369;28;20053;-77
2023/05/25 08:24:07;;;;;;;7.30;2.67;;;17.40;63.50;;;;;;5064539;28;20149;-77
2023/05/25 08:26:35;;;;;;;8.35;2.72;;;17.60;63.20;;;;;;5063392;28;20127;-76
2023/05/25 08:29:04;;;;;;;7.82;3.20;;;17.60;63.10;;;;;;5068344;28;20053;-77
2023/05/25 08:31:31;;;;;;;6.38;3.13;;;17.70;62.00;;;;;;5064528;28;20168;-78
2023/05/25 08:33:58;;;;;;;6.88;2.72;;;17.80;61.20;;;;;;5048393;28;20048;-76
2023/05/25 08:36:26;;;;;;;5.35;2.70;;;17.90;61.20;;;;;;5067136;28;20060;-68
2023/05/25 08:38:53;;;;;;;7.03;2.95;;;18.10;61.50;;;;;;5070833;28;20084;-68
2023/05/25 08:41:21;;;;;;;8.30;2.97;;;18.20;60.40;;;;;;5062256;28;20053;-69
2023/05/25 08:43:48;;;;;;;7.43;2.75;;;18.30;59.80;;;;;;5069737;28;20052;-70
2023/05/25 08:46:30;;;;;;;6.97;3.00;;;18.30;59.60;;;;;;5063446;28;20071;-68
2023/05/25 08:49:01;;;;;;;5.88;2.78;;;18.30;59.50;;;;;;5064929;28;20063;-68
2023/05/25 08:51:31;;;;;;;7.88;2.90;;;18.40;59.00;;;;;;5064059;28;20106;-75
2023/05/25 08:54:03;;;;;;;9.50;3.25;;;18.50;59.00;;;;;;5067659;28;20037;-75
2023/05/25 08:56:37;;;;;;;7.07;2.80;;;18.60;58.70;;;;;;5048807;28;20415;-72
2023/05/25 08:59:16;;;;;;;9.35;2.50;;;18.60;58.60;;;;;;5068002;28;20045;-72
2023/05/25 09:01:48;;;;;;;6.97;2.53;;;18.70;58.30;;;;;;5060649;28;20053;-68
2023/05/25 09:04:16;;;;;;;6.43;2.67;;;18.80;58.30;;;;;;5063637;28;20041;-68
2023/05/25 09:06:44;;;;;;;6.80;2.60;;;18.90;58.40;;;;;;5069048;28;20059;-72
2023/05/25 09:09:12;;;;;;;7.03;2.83;;;19.00;57.40;;;;;;5069845;28;20090;-72
2023/05/25 09:11:40;;;;;;;5.80;2.60;;;19.10;56.90;;;;;;5059674;28;20473;-65
2023/05/25 09:14:08;;;;;;;7.35;2.88;;;19.10;56.70;;;;;;5043299;28;20051;-64
2023/05/25 09:16:36;;;;;;;7.63;2.42;;;19.30;56.30;;;;;;5064656;28;20784;-68
2023/05/25 09:19:05;;;;;;;6.38;3.22;;;19.40;55.90;;;;;;5064891;28;20403;-71
2023/05/25 09:21:32;;;;;;;6.15;2.60;;;19.40;55.50;;;;;;5067007;28;20057;-70
2023/05/25 09:23:59;;;;;;;6.32;2.78;;;19.60;55.20;;;;;;5065961;28;20049;-69
2023/05/25 09:26:26;;;;;;;6.82;2.58;;;19.70;54.10;;;;;;5064953;28;20044;-63
2023/05/25 09:28:53;;;;;;;8.15;2.50;;;19.70;53.50;;;;;;5062086;28;20055;-63
2023/05/25 09:31:24;;;;;;;8.45;2.65;;;19.80;53.60;;;;;;5062327;28;20088;-71
2023/05/25 09:33:54;;;;;;;6.63;2.63;;;19.80;53.80;;;;;;5065233;28;20155;-71
2023/05/25 09:36:23;;;;;;;;;;;19.90;52.90;;;;;;5067721;28;20064;-70
2023/05/25 09:38:52;;;;;;;7.68;2.47;;;20.10;52.20;;;;;;5067315;28;19950;-71
2023/05/25 09:41:19;;;;;;;5.88;2.13;;;20.20;52.60;;;;;;5062810;28;20041;-69
2023/05/25 09:43:47;;;;;;;9.32;2.60;;;20.20;53.30;;;;;;5065142;28;20049;-69
2023/05/25 09:46:14;;;;;;;6.22;2.65;;;20.30;53.20;;;;;;5065630;28;20048;-68
2023/05/25 09:48:42;;;;;;;8.45;2.80;;;20.40;53.00;;;;;;5062918;28;20060;-69
2023/05/25 09:51:09;;;;;;;7.13;2.88;;;20.40;52.70;;;;;;5066565;28;20040;-68
2023/05/25 09:53:37;;;;;;;7.00;2.78;;;20.30;51.80;;;;;;5066671;28;20048;-69
2023/05/25 09:56:05;;;;;;;6.78;2.60;;;20.50;52.40;;;;;;5064674;28;20044;-69
2023/05/25 09:58:32;;;;;;;6.35;2.60;;;20.60;51.90;;;;;;5067201;28;20048;-70
2023/05/25 10:01:00;;;;;;;5.55;2.33;;;20.70;51.40;;;;;;5064066;28;20049;-64
2023/05/25 10:03:26;;;;;;;7.00;2.70;;;20.80;51.60;;;;;;5062284;28;20052;-64
2023/05/25 10:05:55;;;;;;;5.50;2.70;;;20.90;51.90;;;;;;5064921;28;20057;-63
2023/05/25 10:08:24;;;;;;;4.72;2.58;;;20.90;50.90;;;;;;5066461;28;20044;-64
2023/05/25 10:10:52;;;;;;;5.33;2.73;;;20.90;50.00;;;;;;5048901;28;20052;-72
2023/05/25 10:13:21;;;;;;;7.00;2.10;;;20.90;48.70;;;;;;5059142;28;20491;-73
2023/05/25 10:15:52;;;;;;;6.28;2.63;;;21.00;48.40;;;;;;5064347;28;20113;-64
2023/05/25 10:18:24;;;;;;;4.75;2.22;;;21.10;48.50;;;;;;5065382;28;20145;-64
2023/05/25 10:20:57;;;;;;;7.40;2.28;;;21.10;48.10;;;;;;5065775;28;20045;-64
2023/05/25 10:23:26;;;;;;;5.45;2.22;;;21.20;47.70;;;;;;5059898;28;20495;-63
2023/05/25 10:25:56;;;;;;;;;;;21.30;47.30;;;;;;5064887;28;20044;-70
2023/05/25 10:28:30;;;;;;;6.03;2.13;;;21.40;47.50;;;;;;5046475;28;19936;-70
2023/05/25 10:30:58;;;;;;;5.93;2.35;;;21.50;47.30;;;;;;5062357;28;20040;-64
2023/05/25 10:33:26;;;;;;;5.90;2.25;;;21.60;47.80;;;;;;5065130;28;20076;-63
2023/05/25 10:35:54;;;;;;;6.13;2.53;;;21.70;47.20;;;;;;5062761;28;20464;-70
2023/05/25 10:38:22;;;;;;;32.10;21.05;;;21.70;46.00;;;;;;5067395;28;20052;-70
2023/05/25 10:40:50;;;;;;;18.95;13.27;;;21.70;46.80;;;;;;5063966;28;20099;-71
2023/05/25 10:43:19;;;;;;;11.07;7.20;;;21.80;46.50;;;;;;5060508;28;20087;-71
2023/05/25 10:45:46;;;;;;;9.88;4.65;;;21.90;46.10;;;;;;5065681;28;20053;-69
2023/05/25 10:48:15;;;;;;;7.32;3.65;;;21.90;46.40;;;;;;5065931;28;20049;-68
2023/05/25 10:50:42;;;;;;;4.68;2.70;;;22.00;45.80;;;;;;5064847;28;20055;-69
2023/05/25 10:53:13;;;;;;;5.43;2.78;;;22.10;45.90;;;;;;5061535;28;20044;-69
2023/05/25 10:55:44;;;;;;;5.25;2.40;;;22.10;45.00;;;;;;5066680;28;20048;-71
2023/05/25 10:58:12;;;;;;;5.20;2.60;;;22.10;44.50;;;;;;5053350;28;20047;-71
2023/05/25 11:00:41;;;;;;;4.63;2.50;;;22.20;45.40;;;;;;5057835;28;20041;-62
2023/05/25 11:03:09;;;;;;;5.50;2.70;;;22.30;44.90;;;;;;5064253;28;20053;-64
2023/05/25 11:05:37;;;;;;;6.25;3.10;;;22.30;45.60;;;;;;5065295;28;20479;-64
2023/05/25 11:08:06;;;;;;;5.97;2.50;;;22.40;44.90;;;;;;5056166;28;20115;-63
2023/05/25 11:10:55;;;;;;;7.00;2.75;;;22.40;45.10;;;;;;5064116;28;20091;-63
2023/05/25 11:13:23;;;;;;;6.78;2.72;;;22.50;45.70;;;;;;5059624;28;20069;-65
2023/05/25 11:16:13;;;;;;;6.57;2.72;;;22.50;45.30;;;;;;5065420;28;20049;-69
2023/05/25 11:18:42;;;;;;;5.80;2.65;;;22.60;44.70;;;;;;5060094;28;20044;-71
2023/05/25 11:21:17;;;;;;;5.07;2.50;;;22.60;45.70;;;;;;5063779;28;20122;-68
2023/05/25 11:23:57;;;;;;;6.40;2.45;;;22.60;44.90;;;;;;5066331;28;20060;-69
2023/05/25 11:26:26;;;;;;;5.28;2.50;;;22.70;44.40;;;;;;5058797;28;21346;-69
2023/05/25 11:28:54;;;;;;;5.97;3.17;;;22.80;44.60;;;;;;5066102;28;20061;-70
2023/05/25 11:31:28;;;;;;;7.03;3.22;;;22.80;44.20;;;;;;5058733;28;20045;-69
2023/05/25 11:33:57;;;;;;;6.78;3.13;;;22.80;44.80;;;;;;5059916;28;20111;-70
2023/05/25 11:36:25;;;;;;;4.70;2.38;;;22.80;44.00;;;;;;5063500;28;20061;-65
2023/05/25 11:38:53;;;;;;;7.20;2.80;;;22.90;43.70;;;;;;5066374;28;20051;-63
2023/05/25 11:41:20;;;;;;;5.07;2.35;;;22.90;42.70;;;;;;5059060;28;20049;-72
2023/05/25 11:43:49;;;;;;;4.68;2.35;;;22.90;43.00;;;;;;5066152;28;20072;-72
2023/05/25 11:46:17;;;;;;;4.15;1.98;;;22.90;42.90;;;;;;5063801;28;20053;-75
2023/05/25 11:48:51;;;;;;;4.67;2.20;;;22.90;42.70;;;;;;5060487;28;20048;-76
2023/05/25 11:51:20;;;;;;;4.88;2.25;;;22.90;43.10;;;;;;5063833;28;20057;-76
2023/05/25 11:53:47;;;;;;;5.77;2.57;;;23.00;43.70;;;;;;5065219;28;20055;-77
2023/05/25 11:56:16;;;;;;;5.68;2.30;;;23.00;43.30;;;;;;5066296;28;20053;-74
2023/05/25 11:58:44;;;;;;;5.18;2.20;;;23.10;43.20;;;;;;5068771;28;20491;-75
2023/05/25 12:01:17;;;;;;;6.00;2.40;;;23.00;43.00;;;;;;5064365;28;20135;-70
2023/05/25 12:03:46;;;;;;;6.78;2.45;;;23.10;44.10;;;;;;5064246;28;20040;-69
2023/05/25 12:06:26;;;;;;;4.95;2.45;;;23.00;43.30;;;;;;5066087;28;20057;-62
2023/05/25 12:08:54;;;;;;;4.03;2.05;;;23.10;42.30;;;;;;5069170;28;20052;-63
2023/05/25 12:11:28;;;;;;;4.68;2.08;;;23.10;42.00;;;;;;5066662;28;20085;-71
2023/05/25 12:13:55;;;;;;;3.40;2.10;;;23.10;42.20;;;;;;5060633;28;20110;-72
2023/05/25 12:16:22;;;;;;;6.00;2.20;;;23.20;41.80;;;;;;5054880;28;20139;-69
2023/05/25 12:18:51;;;;;;;5.72;2.33;;;23.10;41.90;;;;;;5063687;28;20094;-70
2023/05/25 12:21:18;;;;;;;4.60;2.17;;;23.10;42.40;;;;;;5038470;28;20051;-70
2023/05/25 12:23:46;;;;;;;4.60;2.00;;;23.10;42.50;;;;;;5063088;28;20049;-70
2023/05/25 12:26:13;;;;;;;4.50;2.17;;;23.10;42.60;;;;;;5062040;28;20041;-70
2023/05/25 12:28:40;;;;;;;6.35;2.22;;;23.10;42.30;;;;;;5057630;28;20048;-69
2023/05/25 12:31:21;;;;;;;6.93;3.80;;;23.10;42.30;;;;;;5057143;28;20056;-69
2023/05/25 12:34:04;;;;;;;9.05;4.97;;;23.10;43.00;;;;;;5059247;28;20561;-70
2023/05/25 12:36:43;;;;;;;7.65;4.32;;;23.10;42.80;;;;;;5055465;28;20419;-70
2023/05/25 12:39:12;;;;;;;8.15;3.70;;;23.10;43.10;;;;;;5061672;28;20134;-69
2023/05/25 12:41:43;;;;;;;4.72;2.97;;;23.10;43.10;;;;;;5060397;28;20052;-69
2023/05/25 12:44:22;;;;;;;5.65;2.60;;;23.10;43.80;;;;;;5059698;28;20064;-70
2023/05/25 12:46:49;;;;;;;5.67;2.47;;;23.00;43.30;;;;;;5061814;28;20147;-64
2023/05/25 12:49:29;;;;;;;5.30;2.47;;;23.00;42.50;;;;;;5055266;28;20319;-64
2023/05/25 12:51:57;;;;;;;6.65;2.60;;;22.90;42.50;;;;;;5061979;28;20047;-63
2023/05/25 12:54:34;;;;;;;5.38;2.30;;;22.90;43.10;;;;;;5057639;28;20068;-65
2023/05/25 12:57:02;;;;;;;5.13;2.50;;;22.90;42.80;;;;;;5056715;28;20040;-64
2023/05/25 12:59:30;;;;;;;7.03;2.30;;;22.90;42.60;;;;;;5062773;28;20522;-64